createdAt,value
2023-02-08T00:00:00.719Z,101826.28
2023-02-08T00:02:27.066Z,101827.09
2023-02-08T00:04:53.394Z,101831.41
2023-02-08T00:07:19.731Z,101833.16
2023-02-08T00:09:46.105Z,101837.56
2023-02-08T00:12:12.417Z,101833.22
2023-02-08T00:14:38.713Z,101827.06
2023-02-08T00:17:05.041Z,101831.50
2023-02-08T00:19:31.364Z,101839.25
2023-02-08T00:21:57.663Z,101834.84
2023-02-08T00:24:23.980Z,101834.91
2023-02-08T00:26:50.323Z,101830.56
2023-02-08T00:29:16.645Z,101825.41
2023-02-08T00:31:43.065Z,101833.28
2023-02-08T00:34:09.541Z,101835.91
2023-02-08T00:36:35.921Z,101835.78
2023-02-08T00:39:02.356Z,101835.00
2023-02-08T00:41:28.664Z,101833.34
2023-02-08T00:43:54.997Z,101839.25
2023-02-08T00:46:21.586Z,101825.44
2023-02-08T00:48:49.516Z,101827.91
2023-02-08T00:51:15.858Z,101821.03
2023-02-08T00:53:45.008Z,101829.63
2023-02-08T00:56:13.318Z,101820.22
2023-02-08T00:58:40.065Z,101825.34
2023-02-08T01:01:07.413Z,101817.47
2023-02-08T01:03:39.392Z,101829.66
2023-02-08T01:06:09.053Z,101830.56
2023-02-08T01:08:35.832Z,101824.59
2023-02-08T01:11:04.461Z,101819.31
2023-02-08T01:13:30.916Z,101824.53
2023-02-08T01:16:06.527Z,101826.31
2023-02-08T01:18:33.007Z,101818.44
2023-02-08T01:21:05.732Z,101819.25
2023-02-08T01:23:32.088Z,101820.91
2023-02-08T01:25:58.425Z,101817.28
2023-02-08T01:28:24.862Z,101815.72
2023-02-08T01:30:51.317Z,101809.78
2023-02-08T01:33:17.620Z,101817.41
2023-02-08T01:35:43.945Z,101830.22
2023-02-08T01:38:10.286Z,101814.00
2023-02-08T01:40:36.631Z,101823.41
2023-02-08T01:43:02.975Z,101829.47
2023-02-08T01:45:31.298Z,101812.16
2023-02-08T01:48:06.367Z,101818.13
2023-02-08T01:50:43.427Z,101811.25
2023-02-08T01:53:11.085Z,101801.81
2023-02-08T01:55:44.513Z,101806.81
2023-02-08T01:58:14.231Z,101810.34
2023-02-08T02:00:42.143Z,101819.84
2023-02-08T02:03:12.911Z,101813.84
2023-02-08T02:05:43.282Z,101821.75
2023-02-08T02:08:11.299Z,101787.91
2023-02-08T02:10:39.571Z,101811.25
2023-02-08T02:13:10.610Z,101802.44
2023-02-08T02:15:36.992Z,101805.16
2023-02-08T02:18:06.638Z,101806.91
2023-02-08T02:20:56.816Z,101799.75
2023-02-08T02:23:41.107Z,101811.06
2023-02-08T02:26:29.456Z,101811.94
2023-02-08T02:29:15.154Z,101813.72
2023-02-08T02:32:15.587Z,101792.19
2023-02-08T02:34:51.586Z,101789.41
2023-02-08T02:37:18.281Z,101800.69
2023-02-08T02:40:15.076Z,101794.47
2023-02-08T02:43:24.443Z,101798.94
2023-02-08T02:46:08.831Z,101798.00
2023-02-08T02:49:02.668Z,101787.00
2023-02-08T02:51:50.536Z,101790.41
2023-02-08T02:54:20.840Z,101791.31
2023-02-08T02:56:56.110Z,101780.88
2023-02-08T02:59:22.955Z,101792.75
2023-02-08T03:01:49.442Z,101789.41
2023-02-08T03:04:41.817Z,101791.91
2023-02-08T03:07:18.737Z,101797.25
2023-02-08T03:10:20.531Z,101801.66
2023-02-08T03:13:24.150Z,101805.72
2023-02-08T03:16:28.312Z,101811.81
2023-02-08T03:19:27.534Z,101801.47
2023-02-08T03:22:03.796Z,101793.59
2023-02-08T03:24:42.072Z,101803.16
2023-02-08T03:27:23.125Z,101803.91
2023-02-08T03:30:14.319Z,101803.16
2023-02-08T03:32:50.147Z,101795.31
2023-02-08T03:35:22.307Z,101799.78
2023-02-08T03:38:04.435Z,101800.59
2023-02-08T03:40:40.275Z,101788.25
2023-02-08T03:43:16.285Z,101799.69
2023-02-08T03:45:50.444Z,101780.41
2023-02-08T03:48:20.181Z,101806.59
2023-02-08T03:50:51.417Z,101796.16
2023-02-08T03:53:21.966Z,101808.19
2023-02-08T03:55:52.896Z,101792.78
2023-02-08T03:58:28.200Z,101798.81
2023-02-08T04:01:00.070Z,101802.97
2023-02-08T04:03:29.619Z,101796.06
2023-02-08T04:05:56.126Z,101796.00
2023-02-08T04:08:22.974Z,101800.38
2023-02-08T04:10:49.572Z,101801.16
2023-02-08T04:13:16.230Z,101807.19
2023-02-08T04:15:44.118Z,101799.34
2023-02-08T04:18:10.773Z,101796.75
2023-02-08T04:20:37.067Z,101794.16
2023-02-08T04:23:03.392Z,101795.81
2023-02-08T04:25:29.689Z,101793.16
2023-02-08T04:27:56.006Z,101801.94
2023-02-08T04:30:22.524Z,101800.31
2023-02-08T04:32:49.004Z,101801.75
2023-02-08T04:35:15.407Z,101787.84
2023-02-08T04:37:41.737Z,101789.75
2023-02-08T04:40:08.524Z,101790.75
2023-02-08T04:42:35.162Z,101791.59
2023-02-08T04:45:01.452Z,101787.50
2023-02-08T04:47:27.803Z,101779.34
2023-02-08T04:49:54.122Z,101780.19
2023-02-08T04:52:20.418Z,101781.09
2023-02-08T04:54:46.775Z,101785.16
2023-02-08T04:57:14.313Z,101783.56
2023-02-08T04:59:40.980Z,101788.69
2023-02-08T05:02:07.386Z,101785.38
2023-02-08T05:04:34.026Z,101776.63
2023-02-08T05:07:00.353Z,101785.38
2023-02-08T05:09:26.695Z,101787.16
2023-02-08T05:11:53.017Z,101775.06
2023-02-08T05:14:19.338Z,101777.81
2023-02-08T05:16:45.688Z,101779.09
2023-02-08T05:19:13.511Z,101781.09
2023-02-08T05:21:39.834Z,101778.59
2023-02-08T05:24:07.102Z,101772.84
2023-02-08T05:26:33.545Z,101775.69
2023-02-08T05:28:59.863Z,101780.03
2023-02-08T05:31:26.306Z,101776.47
2023-02-08T05:33:53.154Z,101778.47
2023-02-08T05:36:21.100Z,101776.53
2023-02-08T05:38:47.397Z,101777.34
2023-02-08T05:41:13.700Z,101777.00
2023-02-08T05:43:40.050Z,101780.75
2023-02-08T05:46:06.351Z,101794.34
2023-02-08T05:48:33.297Z,101789.16
2023-02-08T05:51:00.376Z,101796.25
2023-02-08T05:53:27.361Z,101799.88
2023-02-08T05:55:53.739Z,101800.91
2023-02-08T05:58:20.089Z,101811.03
2023-02-08T06:00:46.484Z,101802.44
2023-02-08T06:03:12.906Z,101809.41
2023-02-08T06:05:40.704Z,101815.41
2023-02-08T06:08:07.920Z,101802.47
2023-02-08T06:10:35.092Z,101806.72
2023-02-08T06:13:01.668Z,101813.50
2023-02-08T06:15:28.095Z,101800.25
2023-02-08T06:17:54.467Z,101802.03
2023-02-08T06:20:20.872Z,101808.22
2023-02-08T06:22:47.223Z,101803.84
2023-02-08T06:25:13.527Z,101813.59
2023-02-08T06:27:39.839Z,101806.50
2023-02-08T06:30:06.371Z,101809.25
2023-02-08T06:32:32.767Z,101808.31
2023-02-08T06:34:59.197Z,101810.75
2023-02-08T06:37:25.476Z,101820.34
2023-02-08T06:39:51.789Z,101817.56
2023-02-08T06:42:18.142Z,101820.34
2023-02-08T06:44:54.430Z,101820.47
2023-02-08T06:47:22.800Z,101816.88
2023-02-08T06:49:49.142Z,101818.66
2023-02-08T06:52:15.433Z,101820.31
2023-02-08T06:54:41.820Z,101826.06
2023-02-08T06:57:08.328Z,101834.78
2023-02-08T06:59:35.125Z,101821.91
2023-02-08T07:02:01.712Z,101818.47
2023-02-08T07:04:28.164Z,101821.09
2023-02-08T07:06:54.504Z,101820.41
2023-02-08T07:09:20.838Z,101815.03
2023-02-08T07:11:47.149Z,101816.66
2023-02-08T07:14:14.900Z,101813.41
2023-02-08T07:16:41.775Z,101812.59
2023-02-08T07:19:08.246Z,101809.06
2023-02-08T07:21:34.563Z,101819.50
2023-02-08T07:24:00.864Z,101810.94
2023-02-08T07:26:27.218Z,101810.81
2023-02-08T07:28:53.590Z,101809.16
2023-02-08T07:31:19.936Z,101804.63
2023-02-08T07:33:46.306Z,101796.66
2023-02-08T07:36:12.712Z,101803.78
2023-02-08T07:38:39.319Z,101804.63
2023-02-08T07:41:09.044Z,101804.88
2023-02-08T07:43:36.962Z,101814.19
2023-02-08T07:46:19.551Z,101800.19
2023-02-08T07:48:46.156Z,101798.75
2023-02-08T07:51:12.976Z,101793.53
2023-02-08T07:53:39.481Z,101802.34
2023-02-08T07:56:06.041Z,101786.44
2023-02-08T07:58:32.400Z,101802.78
2023-02-08T08:01:04.875Z,101792.59
2023-02-08T08:03:38.850Z,101793.72
2023-02-08T08:06:05.376Z,101809.47
2023-02-08T08:08:31.684Z,101806.00
2023-02-08T08:10:58.046Z,101802.47
2023-02-08T08:13:24.330Z,101795.69
2023-02-08T08:15:50.674Z,101799.13
2023-02-08T08:18:17.304Z,101796.66
2023-02-08T08:20:43.628Z,101799.31
2023-02-08T08:23:09.923Z,101792.47
2023-02-08T08:25:38.052Z,101792.34
2023-02-08T08:28:05.020Z,101802.59
2023-02-08T08:30:31.459Z,101798.53
2023-02-08T08:32:58.077Z,101790.84
2023-02-08T08:35:24.389Z,101795.28
2023-02-08T08:37:50.692Z,101790.19
2023-02-08T08:40:17.071Z,101791.97
2023-02-08T08:42:43.445Z,101778.94
2023-02-08T08:45:10.561Z,101785.03
2023-02-08T08:47:36.950Z,101792.91
2023-02-08T08:50:03.761Z,101787.00
2023-02-08T08:52:30.178Z,101797.44
2023-02-08T08:54:56.550Z,101786.97
2023-02-08T08:57:22.954Z,101794.78
2023-02-08T08:59:49.289Z,101797.44
2023-02-08T09:02:15.678Z,101793.97
2023-02-08T09:04:42.084Z,101791.44
2023-02-08T09:07:10.214Z,101782.09
2023-02-08T09:09:36.807Z,101789.88
2023-02-08T09:12:03.637Z,101792.47
2023-02-08T09:14:29.992Z,101785.53
2023-02-08T09:16:56.317Z,101780.38
2023-02-08T09:19:22.678Z,101776.94
2023-02-08T09:21:48.964Z,101770.00
2023-02-08T09:24:16.274Z,101783.03
2023-02-08T09:26:42.726Z,101772.69
2023-02-08T09:29:09.062Z,101769.28
2023-02-08T09:31:37.796Z,101773.63
2023-02-08T09:34:05.699Z,101777.97
2023-02-08T09:36:34.749Z,101781.41
2023-02-08T09:39:06.712Z,101774.56
2023-02-08T09:42:04.057Z,101776.31
2023-02-08T09:44:49.431Z,101765.00
2023-02-08T09:47:36.011Z,101773.69
2023-02-08T09:50:11.406Z,101766.75
2023-02-08T09:52:47.304Z,101777.16
2023-02-08T09:55:29.912Z,101761.56
2023-02-08T09:57:59.143Z,101771.09
2023-02-08T10:00:34.302Z,101762.41
2023-02-08T10:03:02.273Z,101763.28
2023-02-08T10:05:30.621Z,101765.81
2023-02-08T10:07:58.552Z,101771.91
2023-02-08T10:10:43.944Z,101777.88
2023-02-08T10:13:41.390Z,101766.53
2023-02-08T10:16:27.127Z,101772.53
2023-02-08T10:19:06.550Z,101768.97
2023-02-08T10:21:52.255Z,101762.88
2023-02-08T10:24:49.781Z,101759.31
2023-02-08T10:27:22.497Z,101761.84
2023-02-08T10:30:00.232Z,101765.03
2023-02-08T10:32:51.228Z,101759.63
2023-02-08T10:35:26.579Z,101753.34
2023-02-08T10:37:53.834Z,101748.63
2023-02-08T10:40:30.263Z,101746.41
2023-02-08T10:43:24.388Z,101740.25
2023-02-08T10:46:12.553Z,101740.94
2023-02-08T10:48:58.837Z,101735.69
2023-02-08T10:51:26.036Z,101730.69
2023-02-08T10:53:53.509Z,101732.78
2023-02-08T10:56:35.248Z,101728.84
2023-02-08T10:59:11.546Z,101724.66
2023-02-08T11:01:37.856Z,101716.16
2023-02-08T11:04:12.790Z,101715.41
2023-02-08T11:06:41.160Z,101711.78
2023-02-08T11:09:20.439Z,101711.63
2023-02-08T11:11:46.939Z,101700.94
2023-02-08T11:14:24.197Z,101697.09
2023-02-08T11:16:52.756Z,101697.75
2023-02-08T11:19:28.111Z,101695.63
2023-02-08T11:21:54.615Z,101685.34
2023-02-08T11:24:35.796Z,101694.06
2023-02-08T11:27:02.883Z,101686.63
2023-02-08T11:29:31.319Z,101672.25
2023-02-08T11:32:00.989Z,101664.06
2023-02-08T11:34:41.226Z,101669.03
2023-02-08T11:37:20.715Z,101668.56
2023-02-08T11:39:55.905Z,101663.78
2023-02-08T11:42:28.817Z,101663.47
2023-02-08T11:44:57.025Z,101665.72
2023-02-08T11:47:30.519Z,101647.94
2023-02-08T11:49:59.934Z,101647.81
2023-02-08T11:52:30.731Z,101639.59
2023-02-08T11:55:25.067Z,101648.50
2023-02-08T11:58:14.374Z,101641.19
2023-02-08T12:00:41.243Z,101632.59
2023-02-08T12:03:07.503Z,101640.75
2023-02-08T12:05:51.084Z,101635.22
2023-02-08T12:08:28.953Z,101636.59
2023-02-08T12:11:21.912Z,101628.88
2023-02-08T12:14:23.879Z,101622.41
2023-02-08T12:17:12.041Z,101628.56
2023-02-08T12:20:08.260Z,101632.41
2023-02-08T12:22:40.556Z,101623.44
2023-02-08T12:25:28.606Z,101612.34
2023-02-08T12:28:16.467Z,101611.28
2023-02-08T12:31:24.499Z,101619.53
2023-02-08T12:34:28.809Z,101616.94
2023-02-08T12:37:44.960Z,101598.00
2023-02-08T12:40:42.366Z,101606.84
2023-02-08T12:43:19.930Z,101600.84
2023-02-08T12:46:11.337Z,101590.72
2023-02-08T12:48:43.650Z,101583.34
2023-02-08T12:51:36.196Z,101582.28
2023-02-08T12:54:30.335Z,101567.50
2023-02-08T12:57:02.356Z,101555.19
2023-02-08T12:59:38.609Z,101565.31
2023-02-08T13:02:16.013Z,101562.06
2023-02-08T13:04:47.158Z,101556.28
2023-02-08T13:07:19.998Z,101560.97
2023-02-08T13:09:58.875Z,101552.53
2023-02-08T13:12:39.918Z,101556.53
2023-02-08T13:15:30.177Z,101551.84
2023-02-08T13:18:04.129Z,101549.28
2023-02-08T13:20:39.813Z,101552.06
2023-02-08T13:23:50.594Z,101543.00
2023-02-08T13:26:24.427Z,101546.59
2023-02-08T13:28:53.765Z,101542.28
2023-02-08T13:31:22.786Z,101543.09
2023-02-08T13:34:08.079Z,101534.47
2023-02-08T13:36:41.424Z,101541.69
2023-02-08T13:39:26.247Z,101528.72
2023-02-08T13:41:55.297Z,101525.16
2023-02-08T13:44:30.488Z,101517.72
2023-02-08T13:46:57.080Z,101516.78
2023-02-08T13:49:43.674Z,101520.16
2023-02-08T13:52:12.037Z,101508.13
2023-02-08T13:54:38.657Z,101515.09
2023-02-08T13:57:43.455Z,101522.16
2023-02-08T14:00:20.266Z,101516.00
2023-02-08T14:03:03.357Z,101524.56
2023-02-08T14:05:45.121Z,101521.31
2023-02-08T14:08:28.091Z,101520.59
2023-02-08T14:11:13.661Z,101513.69
2023-02-08T14:13:50.511Z,101501.59
2023-02-08T14:16:40.029Z,101502.59
2023-02-08T14:19:23.036Z,101506.88
2023-02-08T14:22:04.749Z,101503.44
2023-02-08T14:24:44.193Z,101500.69
2023-02-08T14:27:46.053Z,101508.78
2023-02-08T14:30:18.426Z,101494.25
2023-02-08T14:33:04.897Z,101496.59
2023-02-08T14:35:36.595Z,101491.63
2023-02-08T14:38:24.470Z,101481.69
2023-02-08T14:40:52.621Z,101477.47
2023-02-08T14:43:18.892Z,101474.00
2023-02-08T14:45:52.838Z,101468.63
2023-02-08T14:48:26.312Z,101475.50
2023-02-08T14:51:16.434Z,101487.13
2023-02-08T14:53:55.017Z,101472.09
2023-02-08T14:56:28.008Z,101477.22
2023-02-08T14:58:59.318Z,101471.44
2023-02-08T15:01:28.658Z,101461.81
2023-02-08T15:04:01.556Z,101468.44
2023-02-08T15:06:37.621Z,101465.19
2023-02-08T15:09:17.637Z,101459.19
2023-02-08T15:12:03.312Z,101460.97
2023-02-08T15:14:33.433Z,101451.53
2023-02-08T15:17:00.119Z,101449.81
2023-02-08T15:19:28.300Z,101449.22
2023-02-08T15:21:55.136Z,101458.34
2023-02-08T15:24:29.583Z,101454.88
2023-02-08T15:26:57.791Z,101452.38
2023-02-08T15:29:39.113Z,101462.88
2023-02-08T15:32:17.549Z,101459.19
2023-02-08T15:34:46.636Z,101452.31
2023-02-08T15:37:17.790Z,101456.84
2023-02-08T15:39:44.213Z,101451.66
2023-02-08T15:42:22.746Z,101433.78
2023-02-08T15:44:49.689Z,101426.00
2023-02-08T15:47:25.697Z,101433.88
2023-02-08T15:49:53.658Z,101445.59
2023-02-08T15:52:24.329Z,101423.75
2023-02-08T15:54:51.615Z,101430.63
2023-02-08T15:57:36.840Z,101431.63
2023-02-08T16:00:12.841Z,101424.97
2023-02-08T16:02:39.240Z,101426.09
2023-02-08T16:05:20.253Z,101419.59
2023-02-08T16:07:47.605Z,101417.47
2023-02-08T16:10:40.349Z,101419.66
2023-02-08T16:13:17.870Z,101418.97
2023-02-08T16:15:46.650Z,101419.53
2023-02-08T16:18:46.060Z,101425.75
2023-02-08T16:21:25.828Z,101433.78
2023-02-08T16:23:56.506Z,101426.00
2023-02-08T16:26:35.053Z,101425.88
2023-02-08T16:29:04.241Z,101434.69
2023-02-08T16:31:32.866Z,101418.97
2023-02-08T16:34:05.816Z,101424.75
2023-02-08T16:36:35.882Z,101426.09
2023-02-08T16:39:22.177Z,101427.78
2023-02-08T16:42:06.467Z,101425.44
2023-02-08T16:45:17.014Z,101422.66
2023-02-08T16:47:56.922Z,101429.34
2023-02-08T16:50:27.155Z,101430.41
2023-02-08T16:52:58.534Z,101434.16
2023-02-08T16:55:26.805Z,101433.06
2023-02-08T16:57:55.730Z,101434.88
2023-02-08T17:00:31.868Z,101428.59
2023-02-08T17:02:58.305Z,101422.50
2023-02-08T17:05:28.263Z,101428.22
2023-02-08T17:07:54.880Z,101412.94
2023-02-08T17:10:29.850Z,101414.88
2023-02-08T17:13:09.743Z,101413.53
2023-02-08T17:15:44.317Z,101416.00
2023-02-08T17:18:12.371Z,101411.81
2023-02-08T17:20:38.772Z,101416.00
2023-02-08T17:23:05.787Z,101416.25
2023-02-08T17:25:33.726Z,101405.09
2023-02-08T17:28:07.353Z,101412.00
2023-02-08T17:30:40.228Z,101418.91
2023-02-08T17:33:07.680Z,101417.47
2023-02-08T17:35:37.488Z,101416.81
2023-02-08T17:38:04.821Z,101404.78
2023-02-08T17:40:33.424Z,101418.44
2023-02-08T17:43:00.244Z,101406.13
2023-02-08T17:45:28.031Z,101409.38
2023-02-08T17:47:55.810Z,101403.75
2023-02-08T17:50:23.152Z,101413.38
2023-02-08T17:52:49.482Z,101408.59
2023-02-08T17:55:17.751Z,101406.28
2023-02-08T17:57:45.225Z,101402.72
2023-02-08T18:00:23.577Z,101408.59
2023-02-08T18:02:52.450Z,101405.22
2023-02-08T18:05:21.916Z,101404.84
2023-02-08T18:07:48.515Z,101402.03
2023-02-08T18:10:15.195Z,101410.31
2023-02-08T18:12:42.784Z,101405.66
2023-02-08T18:15:12.065Z,101398.66
2023-02-08T18:17:39.427Z,101407.69
2023-02-08T18:20:06.870Z,101393.66
2023-02-08T18:22:33.241Z,101398.47
2023-02-08T18:24:59.587Z,101416.72
2023-02-08T18:27:27.025Z,101414.94
2023-02-08T18:29:54.468Z,101407.84
2023-02-08T18:32:21.928Z,101411.16
2023-02-08T18:34:49.507Z,101415.69
2023-02-08T18:37:16.388Z,101407.13
2023-02-08T18:39:42.906Z,101407.00
2023-02-08T18:42:09.323Z,101409.56
2023-02-08T18:44:38.414Z,101419.25
2023-02-08T18:47:07.134Z,101416.69
2023-02-08T18:49:40.193Z,101415.91
2023-02-08T18:52:15.658Z,101414.47
2023-02-08T18:54:42.058Z,101412.50
2023-02-08T18:57:11.341Z,101418.66
2023-02-08T18:59:38.379Z,101420.22
2023-02-08T19:02:06.880Z,101414.25
2023-02-08T19:04:38.115Z,101420.28
2023-02-08T19:07:05.291Z,101425.63
2023-02-08T19:09:35.587Z,101422.09
2023-02-08T19:12:01.941Z,101417.84
2023-02-08T19:14:28.388Z,101419.97
2023-02-08T19:16:54.728Z,101423.53
2023-02-08T19:19:21.327Z,101422.59
2023-02-08T19:21:47.708Z,101426.81
2023-02-08T19:24:15.254Z,101417.13
2023-02-08T19:26:41.839Z,101419.00
2023-02-08T19:29:13.234Z,101413.84
2023-02-08T19:31:40.278Z,101422.47
2023-02-08T19:34:07.044Z,101420.75
2023-02-08T19:36:37.534Z,101416.31
2023-02-08T19:39:06.362Z,101421.81
2023-02-08T19:41:38.495Z,101424.38
2023-02-08T19:44:07.468Z,101418.16
2023-02-08T19:46:38.607Z,101419.81
2023-02-08T19:49:05.905Z,101419.00
2023-02-08T19:51:34.588Z,101396.59
2023-02-08T19:54:02.287Z,101412.22
2023-02-08T19:56:33.801Z,101408.66
2023-02-08T19:59:03.766Z,101396.69
2023-02-08T20:01:33.020Z,101403.59
2023-02-08T20:04:00.171Z,101395.69
2023-02-08T20:06:29.881Z,101398.28
2023-02-08T20:08:56.234Z,101389.75
2023-02-08T20:11:28.340Z,101393.25
2023-02-08T20:13:57.213Z,101381.97
2023-02-08T20:16:24.432Z,101388.03
2023-02-08T20:18:50.868Z,101385.41
2023-02-08T20:21:18.182Z,101381.03
2023-02-08T20:23:45.281Z,101389.84
2023-02-08T20:26:11.587Z,101381.22
2023-02-08T20:28:39.973Z,101385.59
2023-02-08T20:31:08.981Z,101388.22
2023-02-08T20:33:35.476Z,101388.94
2023-02-08T20:36:10.353Z,101391.59
2023-02-08T20:38:37.652Z,101392.56
2023-02-08T20:41:09.305Z,101382.19
2023-02-08T20:43:36.467Z,101384.66
2023-02-08T20:46:07.842Z,101381.38
2023-02-08T20:48:34.646Z,101377.09
2023-02-08T20:51:21.557Z,101375.34
2023-02-08T20:53:49.091Z,101380.56
2023-02-08T20:56:18.591Z,101386.69
2023-02-08T20:58:45.719Z,101378.84
2023-02-08T21:01:15.381Z,101375.34
2023-02-08T21:03:42.714Z,101372.81
2023-02-08T21:06:18.479Z,101370.22
2023-02-08T21:08:45.686Z,101368.56
2023-02-08T21:11:12.299Z,101372.91
2023-02-08T21:13:38.779Z,101371.22
2023-02-08T21:16:09.185Z,101375.44
2023-02-08T21:18:36.456Z,101376.34
2023-02-08T21:21:06.319Z,101371.13
2023-02-08T21:23:33.554Z,101364.22
2023-02-08T21:26:01.441Z,101352.03
2023-02-08T21:28:28.194Z,101357.22
2023-02-08T21:31:19.781Z,101360.78
2023-02-08T21:33:46.252Z,101362.53
2023-02-08T21:36:14.970Z,101356.41
2023-02-08T21:38:42.086Z,101345.94
2023-02-08T21:41:19.989Z,101342.47
2023-02-08T21:43:47.415Z,101341.72
2023-02-08T21:46:13.837Z,101329.69
2023-02-08T21:48:58.785Z,101333.94
2023-02-08T21:51:44.133Z,101328.78
2023-02-08T21:54:31.094Z,101326.25
2023-02-08T21:57:02.389Z,101329.66
2023-02-08T21:59:29.449Z,101337.44
2023-02-08T22:01:56.377Z,101330.56
2023-02-08T22:04:22.784Z,101336.63
2023-02-08T22:06:49.156Z,101322.81
2023-02-08T22:09:20.329Z,101321.91
2023-02-08T22:11:49.571Z,101327.09
2023-02-08T22:14:16.339Z,101324.50
2023-02-08T22:16:42.681Z,101329.72
2023-02-08T22:19:09.032Z,101318.50
2023-02-08T22:21:35.482Z,101312.38
2023-02-08T22:24:01.819Z,101317.69
2023-02-08T22:26:28.178Z,101315.97
2023-02-08T22:28:54.688Z,101315.06
2023-02-08T22:31:21.631Z,101328.88
2023-02-08T22:33:48.113Z,101324.56
2023-02-08T22:36:14.437Z,101328.94
2023-02-08T22:38:40.826Z,101324.59
2023-02-08T22:41:12.093Z,101320.25
2023-02-08T22:43:38.801Z,101325.41
2023-02-08T22:46:05.602Z,101321.03
2023-02-08T22:48:32.458Z,101315.06
2023-02-08T22:50:59.184Z,101315.94
2023-02-08T22:53:26.359Z,101319.44
2023-02-08T22:55:56.168Z,101327.22
2023-02-08T22:58:23.089Z,101322.03
2023-02-08T23:00:49.608Z,101326.34
2023-02-08T23:03:17.319Z,101320.31
2023-02-08T23:05:45.432Z,101336.72
2023-02-08T23:08:12.989Z,101336.72
2023-02-08T23:10:39.912Z,101351.41
2023-02-08T23:13:06.636Z,101335.88
2023-02-08T23:15:33.591Z,101340.16
2023-02-08T23:17:59.970Z,101341.88
2023-02-08T23:20:26.733Z,101350.53
2023-02-08T23:22:53.062Z,101344.47
2023-02-08T23:25:19.518Z,101346.22
2023-02-08T23:27:45.946Z,101356.56
2023-02-08T23:30:12.734Z,101341.91
2023-02-08T23:32:39.103Z,101341.91
2023-02-08T23:35:05.841Z,101346.25
2023-02-08T23:37:32.133Z,101341.91
2023-02-08T23:39:59.206Z,101339.28
2023-02-08T23:42:25.738Z,101333.28
2023-02-08T23:44:57.441Z,101340.16
2023-02-08T23:47:25.182Z,101318.56
2023-02-08T23:49:51.706Z,101341.03
2023-02-08T23:52:18.787Z,101335.00
2023-02-08T23:54:45.473Z,101330.66
2023-02-08T23:57:11.850Z,101338.47
2023-02-08T23:59:39.074Z,101341.03
